Time;durP1;ratioP1;P1;durP2;ratioP2;P2;SDS_P1;SDS_P2;PMS_P1;PMS_P2;Temp;Humidity;BMP_temperature;BMP_pressure;BME280_temperature;BME280_humidity;BME280_pressure;Samples;Min_cycle;Max_cycle;Signal;HPM_P1;HPM_P2
2022/02/15 00:02:26;;;;;;;16.83;12.10;;;;;;;;;;143731;644;46012;-61
2022/02/15 00:04:53;;;;;;;17.40;12.65;;;;;;;;;;143728;603;46018;-61
2022/02/15 00:07:20;;;;;;;14.70;10.77;;;;;;;;;;143731;571;46012;-60
2022/02/15 00:09:47;;;;;;;15.20;11.10;;;;;;;;;;143732;600;46018;-60
2022/02/15 00:12:14;;;;;;;21.48;12.93;;;;;;;;;;143731;569;46022;-61
2022/02/15 00:14:41;;;;;;;20.15;13.38;;;;;;;;;;143727;603;46019;-60
2022/02/15 00:17:08;;;;;;;19.17;13.30;;;;;;;;;;143732;612;46012;-61
2022/02/15 00:19:35;;;;;;;18.27;13.57;;;;;;;;;;143733;611;46018;-61
2022/02/15 00:22:02;;;;;;;20.25;13.73;;;;;;;;;;143732;564;46012;-61
2022/02/15 00:24:29;;;;;;;32.63;17.85;;;;;;;;;;143727;601;46018;-61
2022/02/15 00:26:56;;;;;;;22.92;15.98;;;;;;;;;;143732;592;46012;-61
2022/02/15 00:29:23;;;;;;;25.30;14.95;;;;;;;;;;143728;586;46018;-61
2022/02/15 00:31:50;;;;;;;16.30;12.05;;;;;;;;;;143731;621;46012;-61
2022/02/15 00:34:17;;;;;;;13.32;10.32;;;;;;;;;;143728;595;46018;-61
2022/02/15 00:36:44;;;;;;;20.25;12.10;;;;;;;;;;143729;626;46012;-61
2022/02/15 00:39:11;;;;;;;18.15;14.18;;;;;;;;;;143726;564;46018;-61
2022/02/15 00:41:38;;;;;;;21.42;11.48;;;;;;;;;;143731;591;45053;-60
2022/02/15 00:44:05;;;;;;;19.00;14.45;;;;;;;;;;143725;593;46020;-60
2022/02/15 00:46:32;;;;;;;20.23;14.30;;;;;;;;;;143730;590;46012;-60
2022/02/15 00:48:59;;;;;;;25.52;16.37;;;;;;;;;;143725;602;46018;-60
2022/02/15 00:51:26;;;;;;;17.87;12.85;;;;;;;;;;143730;580;46022;-60
2022/02/15 00:53:54;;;;;;;16.58;11.35;;;;;;;;;;143724;570;46021;-60
2022/02/15 00:56:21;;;;;;;21.95;13.23;;;;;;;;;;143730;585;46012;-61
2022/02/15 00:58:48;;;;;;;15.05;11.07;;;;;;;;;;143726;590;46019;-60
2022/02/15 01:01:15;;;;;;;14.10;10.80;;;;;;;;;;143728;589;46023;-60
2022/02/15 01:03:42;;;;;;;14.15;10.20;;;;;;;;;;143725;580;46020;-60
2022/02/15 01:06:09;;;;;;;15.38;10.95;;;;;;;;;;143730;593;46013;-61
2022/02/15 01:08:36;;;;;;;17.90;10.95;;;;;;;;;;143728;586;46019;-60
2022/02/15 01:11:03;;;;;;;17.45;10.90;;;;;;;;;;143728;570;46022;-60
2022/02/15 01:13:30;;;;;;;16.98;12.20;;;;;;;;;;143726;570;46019;-60
2022/02/15 01:15:57;;;;;;;21.40;13.30;;;;;;;;;;143732;597;46012;-60
2022/02/15 01:18:26;;;;;;;15.80;10.85;;;;;;;;;;143727;582;46018;-60
2022/02/15 01:20:53;;;;;;;15.70;11.68;;;;;;;;;;143728;592;46022;-60
2022/02/15 01:23:21;;;;;;;14.63;11.18;;;;;;;;;;143726;596;46021;-60
2022/02/15 01:25:48;;;;;;;16.15;11.18;;;;;;;;;;143729;588;46012;-60
2022/02/15 01:28:15;;;;;;;18.80;11.18;;;;;;;;;;143729;610;46018;-60
2022/02/15 01:30:42;;;;;;;18.42;11.45;;;;;;;;;;143728;579;46023;-60
2022/02/15 01:33:10;;;;;;;15.98;10.93;;;;;;;;;;143724;577;47018;-60
2022/02/15 01:35:37;;;;;;;16.50;11.30;;;;;;;;;;143728;569;46012;-61
2022/02/15 01:38:04;;;;;;;16.60;11.65;;;;;;;;;;143726;605;46019;-61
2022/02/15 01:40:32;;;;;;;17.67;11.50;;;;;;;;;;143730;588;46012;-61
2022/02/15 01:42:59;;;;;;;15.27;10.65;;;;;;;;;;143726;625;46019;-61
2022/02/15 01:45:27;;;;;;;22.08;12.50;;;;;;;;;;143727;577;46012;-61
2022/02/15 01:47:54;;;;;;;19.98;11.00;;;;;;;;;;143726;589;46018;-61
2022/02/15 01:50:21;;;;;;;13.13;9.15;;;;;;;;;;143728;566;46022;-61
2022/02/15 01:52:48;;;;;;;16.45;11.60;;;;;;;;;;143725;618;46018;-61
2022/02/15 01:55:16;;;;;;;17.98;12.98;;;;;;;;;;143728;570;46012;-61
2022/02/15 01:57:43;;;;;;;13.73;10.27;;;;;;;;;;143725;569;46018;-61
2022/02/15 02:00:14;;;;;;;14.65;10.65;;;;;;;;;;143730;611;46012;-60
2022/02/15 02:02:42;;;;;;;17.17;11.50;;;;;;;;;;143726;658;46018;-60
2022/02/15 02:07:54;;;;;;;19.00;12.00;;;;;;;;;;143725;622;46021;-60
2022/02/15 02:10:22;;;;;;;14.93;11.23;;;;;;;;;;143725;587;46022;-61
2022/02/15 02:12:49;;;;;;;21.83;13.38;;;;;;;;;;143726;564;46019;-61
2022/02/15 02:15:21;;;;;;;20.75;13.55;;;;;;;;;;143730;569;46012;-61
2022/02/15 02:17:48;;;;;;;18.05;12.43;;;;;;;;;;143726;598;46018;-61
2022/02/15 02:20:15;;;;;;;16.17;11.12;;;;;;;;;;143730;597;46012;-61
2022/02/15 02:22:42;;;;;;;19.92;13.57;;;;;;;;;;143724;684;46019;-61
2022/02/15 02:25:10;;;;;;;15.02;10.70;;;;;;;;;;143726;593;46012;-61
2022/02/15 02:27:39;;;;;;;14.05;10.65;;;;;;;;;;143726;587;46018;-61
2022/02/15 02:30:07;;;;;;;15.85;10.20;;;;;;;;;;143730;607;46013;-61
2022/02/15 02:32:35;;;;;;;16.55;11.18;;;;;;;;;;143726;595;46018;-61
2022/02/15 02:35:05;;;;;;;15.50;11.50;;;;;;;;;;143729;593;46012;-61
2022/02/15 02:37:33;;;;;;;16.58;10.98;;;;;;;;;;143727;595;46019;-61
2022/02/15 02:40:01;;;;;;;19.95;13.20;;;;;;;;;;143729;609;46020;-61
2022/02/15 02:42:29;;;;;;;23.85;15.27;;;;;;;;;;143726;596;47020;-62
2022/02/15 02:45:01;;;;;;;25.37;17.45;;;;;;;;;;143727;706;46010;-61
2022/02/15 02:47:28;;;;;;;28.62;19.90;;;;;;;;;;143726;596;46020;-61
2022/02/15 02:49:56;;;;;;;28.10;18.67;;;;;;;;;;143730;620;46010;-62
2022/02/15 02:52:24;;;;;;;36.45;22.23;;;;;;;;;;143725;601;46020;-62
2022/02/15 02:54:51;;;;;;;29.98;18.77;;;;;;;;;;143728;587;46010;-62
2022/02/15 02:57:18;;;;;;;29.83;19.52;;;;;;;;;;143726;575;46020;-61
2022/02/15 02:59:46;;;;;;;46.35;26.12;;;;;;;;;;143727;571;46021;-61
2022/02/15 03:02:14;;;;;;;37.78;23.17;;;;;;;;;;143725;579;46022;-61
2022/02/15 03:04:41;;;;;;;44.53;25.48;;;;;;;;;;143731;570;46011;-61
2022/02/15 03:07:08;;;;;;;73.57;38.33;;;;;;;;;;143726;591;46021;-61
2022/02/15 03:09:35;;;;;;;84.43;41.35;;;;;;;;;;143727;602;46020;-61
2022/02/15 03:12:03;;;;;;;32.60;18.15;;;;;;;;;;143725;588;46020;-61
2022/02/15 03:14:31;;;;;;;32.10;15.88;;;;;;;;;;143727;585;46010;-61
2022/02/15 03:16:58;;;;;;;62.30;32.05;;;;;;;;;;143726;577;46020;-61
2022/02/15 03:19:25;;;;;;;42.97;22.42;;;;;;;;;;143730;595;46010;-61
2022/02/15 03:21:52;;;;;;;43.90;25.27;;;;;;;;;;143724;566;46021;-61
2022/02/15 03:24:19;;;;;;;45.65;25.90;;;;;;;;;;143727;572;46010;-61
2022/02/15 03:26:46;;;;;;;57.10;29.58;;;;;;;;;;143726;607;46020;-61
2022/02/15 03:29:13;;;;;;;51.83;26.50;;;;;;;;;;143729;685;46012;-61
2022/02/15 03:31:41;;;;;;;35.08;20.23;;;;;;;;;;143730;589;46020;-61
2022/02/15 03:34:08;;;;;;;51.47;29.12;;;;;;;;;;143727;571;46010;-61
2022/02/15 03:36:35;;;;;;;33.35;18.35;;;;;;;;;;143729;581;46020;-61
2022/02/15 03:39:05;;;;;;;43.53;24.65;;;;;;;;;;143730;585;46010;-61
2022/02/15 03:44:17;;;;;;;29.92;17.50;;;;;;;;;;143726;621;46918;-60
2022/02/15 03:46:44;;;;;;;33.90;18.83;;;;;;;;;;143729;564;46020;-61
2022/02/15 03:49:12;;;;;;;32.83;18.85;;;;;;;;;;143730;599;46010;-61
2022/02/15 03:51:39;;;;;;;29.37;16.77;;;;;;;;;;143727;587;46021;-61
2022/02/15 03:54:06;;;;;;;27.37;16.02;;;;;;;;;;143731;582;46010;-61
2022/02/15 03:56:34;;;;;;;36.13;21.00;;;;;;;;;;143726;590;46020;-61
2022/02/15 03:59:02;;;;;;;35.88;22.13;;;;;;;;;;143729;571;46012;-61
2022/02/15 04:01:29;;;;;;;37.47;21.12;;;;;;;;;;143726;654;46020;-61
2022/02/15 04:03:56;;;;;;;34.15;20.25;;;;;;;;;;143729;575;46010;-61
2022/02/15 04:06:23;;;;;;;31.77;19.87;;;;;;;;;;143726;596;46021;-61
2022/02/15 04:08:50;;;;;;;31.60;18.73;;;;;;;;;;143730;619;46010;-61
2022/02/15 04:11:17;;;;;;;33.80;19.52;;;;;;;;;;143727;565;46020;-61
2022/02/15 04:13:44;;;;;;;33.42;20.02;;;;;;;;;;143729;564;46010;-61
2022/02/15 04:16:13;;;;;;;37.50;21.55;;;;;;;;;;143726;653;46020;-61
2022/02/15 04:18:47;;;;;;;41.90;22.95;;;;;;;;;;143730;604;46010;-61
2022/02/15 04:21:16;;;;;;;46.30;24.25;;;;;;;;;;143725;571;46022;-61
2022/02/15 04:23:43;;;;;;;34.10;21.48;;;;;;;;;;143729;636;46010;-61
2022/02/15 04:26:10;;;;;;;47.75;26.12;;;;;;;;;;143726;595;46020;-61
2022/02/15 04:28:37;;;;;;;50.47;30.08;;;;;;;;;;143730;567;46010;-61
2022/02/15 04:31:04;;;;;;;38.05;23.48;;;;;;;;;;143726;602;46020;-61
2022/02/15 04:33:31;;;;;;;40.08;24.77;;;;;;;;;;143730;593;46010;-61
2022/02/15 04:35:58;;;;;;;42.85;24.33;;;;;;;;;;143725;569;46021;-61
2022/02/15 04:38:26;;;;;;;41.83;22.17;;;;;;;;;;143728;598;46020;-61
2022/02/15 04:40:52;;;;;;;46.05;28.30;;;;;;;;;;143726;572;46020;-62
2022/02/15 04:43:19;;;;;;;38.95;21.62;;;;;;;;;;143730;603;46010;-62
2022/02/15 04:45:47;;;;;;;34.08;19.10;;;;;;;;;;143727;581;46020;-61
2022/02/15 04:48:14;;;;;;;33.63;21.02;;;;;;;;;;143731;602;46020;-61
2022/02/15 04:50:41;;;;;;;36.60;22.33;;;;;;;;;;143725;662;46021;-61
2022/02/15 04:53:07;;;;;;;34.70;19.60;;;;;;;;;;143726;627;46010;-61
2022/02/15 04:55:35;;;;;;;34.20;21.02;;;;;;;;;;143723;605;46020;-61
2022/02/15 04:58:02;;;;;;;43.00;23.15;;;;;;;;;;143728;572;46020;-61
2022/02/15 05:00:29;;;;;;;42.83;24.33;;;;;;;;;;143726;666;46020;-61
2022/02/15 05:02:56;;;;;;;33.28;20.05;;;;;;;;;;143726;632;46010;-61
2022/02/15 05:05:23;;;;;;;36.22;21.73;;;;;;;;;;143726;598;46020;-61
2022/02/15 05:07:50;;;;;;;38.10;24.17;;;;;;;;;;143730;569;46010;-61
2022/02/15 05:10:17;;;;;;;31.08;18.17;;;;;;;;;;143725;567;46020;-61
2022/02/15 05:12:44;;;;;;;31.77;17.77;;;;;;;;;;143731;572;46011;-61
2022/02/15 05:15:11;;;;;;;24.50;16.20;;;;;;;;;;143725;627;46020;-61
2022/02/15 05:17:43;;;;;;;29.08;18.48;;;;;;;;;;143728;592;46020;-61
2022/02/15 05:20:12;;;;;;;33.92;18.62;;;;;;;;;;143725;641;46021;-61
2022/02/15 05:22:40;;;;;;;32.40;19.05;;;;;;;;;;143730;589;46010;-61
2022/02/15 05:25:09;;;;;;;32.25;19.05;;;;;;;;;;143726;619;46020;-62
2022/02/15 05:27:36;;;;;;;30.95;16.35;;;;;;;;;;143729;638;46020;-61
2022/02/15 05:30:04;;;;;;;26.70;17.48;;;;;;;;;;143727;653;46010;-61
2022/02/15 05:32:31;;;;;;;25.90;16.67;;;;;;;;;;143729;604;46010;-61
2022/02/15 05:34:58;;;;;;;29.65;15.52;;;;;;;;;;143726;603;46021;-61
2022/02/15 05:37:25;;;;;;;29.58;18.90;;;;;;;;;;143730;587;46010;-61
2022/02/15 05:39:52;;;;;;;41.42;21.65;;;;;;;;;;143726;569;46020;-61
2022/02/15 05:42:19;;;;;;;35.90;19.40;;;;;;;;;;143727;578;45998;-61
2022/02/15 05:44:46;;;;;;;34.97;21.35;;;;;;;;;;143726;582;46021;-62
2022/02/15 05:47:13;;;;;;;31.65;19.27;;;;;;;;;;143729;580;46012;-62
2022/02/15 05:52:25;;;;;;;30.45;19.90;;;;;;;;;;143727;573;46010;-62
2022/02/15 05:54:52;;;;;;;32.00;19.02;;;;;;;;;;143725;649;46020;-62
2022/02/15 05:57:19;;;;;;;37.40;22.15;;;;;;;;;;143730;564;46010;-62
2022/02/15 05:59:46;;;;;;;35.25;20.67;;;;;;;;;;143723;606;47023;-62
2022/02/15 06:02:13;;;;;;;38.72;21.75;;;;;;;;;;143731;666;46010;-63
2022/02/15 06:04:40;;;;;;;35.33;21.65;;;;;;;;;;143728;572;45021;-63
2022/02/15 06:07:07;;;;;;;30.23;19.25;;;;;;;;;;143726;564;46020;-63
2022/02/15 06:09:34;;;;;;;37.35;22.90;;;;;;;;;;143726;593;46020;-63
2022/02/15 06:12:01;;;;;;;53.83;31.77;;;;;;;;;;143731;579;46011;-63
2022/02/15 06:14:28;;;;;;;71.65;41.13;;;;;;;;;;143726;585;46020;-62
2022/02/15 06:16:55;;;;;;;44.55;28.42;;;;;;;;;;143728;653;46020;-62
2022/02/15 06:19:22;;;;;;;34.47;22.13;;;;;;;;;;143722;597;47021;-64
2022/02/15 06:21:49;;;;;;;49.33;30.80;;;;;;;;;;143731;580;46010;-65
2022/02/15 06:24:17;;;;;;;74.57;41.55;;;;;;;;;;143722;600;46020;-65
2022/02/15 06:26:45;;;;;;;61.85;36.45;;;;;;;;;;143729;576;46013;-64
2022/02/15 06:29:12;;;;;;;44.85;28.02;;;;;;;;;;143725;574;47020;-65
2022/02/15 06:31:39;;;;;;;39.30;25.95;;;;;;;;;;143731;564;46010;-66
2022/02/15 06:34:06;;;;;;;35.30;19.70;;;;;;;;;;143732;611;46021;-66
2022/02/15 06:36:33;;;;;;;49.70;27.27;;;;;;;;;;143730;600;46010;-66
2022/02/15 06:39:00;;;;;;;64.25;34.67;;;;;;;;;;143727;585;46020;-68
2022/02/15 06:41:28;;;;;;;59.78;34.00;;;;;;;;;;143726;598;46011;-67
2022/02/15 06:43:55;;;;;;;63.50;35.05;;;;;;;;;;143726;628;46020;-68
2022/02/15 06:46:21;;;;;;;66.80;37.05;;;;;;;;;;143729;633;46020;-68
2022/02/15 06:48:49;;;;;;;74.68;38.85;;;;;;;;;;143727;580;46022;-69
2022/02/15 06:51:16;;;;;;;75.22;37.92;;;;;;;;;;143730;623;46010;-67
2022/02/15 06:53:43;;;;;;;97.07;45.17;;;;;;;;;;143728;607;46020;-67
2022/02/15 06:56:10;;;;;;;80.32;41.97;;;;;;;;;;143731;605;46021;-69
2022/02/15 06:58:37;;;;;;;90.75;44.80;;;;;;;;;;143729;631;46020;-69
2022/02/15 07:01:05;;;;;;;76.37;38.03;;;;;;;;;;143730;572;46010;-67
2022/02/15 07:03:32;;;;;;;63.72;33.33;;;;;;;;;;143729;650;46020;-66
2022/02/15 07:05:59;;;;;;;68.18;33.45;;;;;;;;;;143730;570;46021;-66
2022/02/15 07:08:26;;;;;;;81.03;35.80;;;;;;;;;;143727;606;46022;-67
2022/02/15 07:10:54;;;;;;;94.35;40.47;;;;;;;;;;143731;598;46010;-69
2022/02/15 07:13:28;;;;;;;85.62;38.10;;;;;;;;;;143728;628;46021;-69
2022/02/15 07:15:55;;;;;;;84.40;38.13;;;;;;;;;;143731;601;46020;-69
2022/02/15 07:18:23;;;;;;;59.55;28.87;;;;;;;;;;143726;600;46022;-68
2022/02/15 07:20:50;;;;;;;78.32;35.67;;;;;;;;;;143727;604;46010;-67
2022/02/15 07:23:17;;;;;;;67.68;30.00;;;;;;;;;;143726;574;46020;-67
2022/02/15 07:25:44;;;;;;;55.90;27.37;;;;;;;;;;143731;650;45021;-67
2022/02/15 07:28:11;;;;;;;65.35;31.67;;;;;;;;;;143728;630;46020;-67
2022/02/15 07:30:38;;;;;;;67.50;36.05;;;;;;;;;;143727;632;46916;-68
2022/02/15 07:33:05;;;;;;;68.65;35.05;;;;;;;;;;143726;574;46020;-68
2022/02/15 07:35:34;;;;;;;68.28;34.42;;;;;;;;;;143728;575;46020;-67
2022/02/15 07:38:01;;;;;;;64.15;31.62;;;;;;;;;;143726;599;46020;-67
2022/02/15 07:40:28;;;;;;;49.53;24.90;;;;;;;;;;143727;586;46010;-67
2022/02/15 07:42:55;;;;;;;66.43;32.22;;;;;;;;;;143726;639;46023;-67
2022/02/15 07:45:22;;;;;;;53.87;29.45;;;;;;;;;;143727;566;46018;-66
2022/02/15 07:47:51;;;;;;;60.88;28.10;;;;;;;;;;143727;595;46022;-68
2022/02/15 07:50:21;;;;;;;52.53;25.50;;;;;;;;;;143727;569;46010;-69
2022/02/15 07:52:50;;;;;;;57.45;28.75;;;;;;;;;;143727;641;46020;-68
2022/02/15 07:55:18;;;;;;;55.33;28.25;;;;;;;;;;143731;576;46021;-67
2022/02/15 07:57:45;;;;;;;53.75;25.67;;;;;;;;;;143728;589;46020;-68
2022/02/15 08:00:18;;;;;;;54.92;26.95;;;;;;;;;;143728;587;46010;-67
2022/02/15 08:02:48;;;;;;;56.08;29.05;;;;;;;;;;143727;574;46021;-67
2022/02/15 08:05:15;;;;;;;55.42;27.75;;;;;;;;;;143729;584;46021;-68
2022/02/15 08:07:47;;;;;;;56.28;27.35;;;;;;;;;;143725;575;47020;-69
2022/02/15 08:10:15;;;;;;;62.90;32.58;;;;;;;;;;143728;715;46011;-67
2022/02/15 08:12:42;;;;;;;57.47;28.48;;;;;;;;;;143729;722;46023;-68
2022/02/15 08:15:10;;;;;;;66.18;29.73;;;;;;;;;;143728;743;47018;-68
2022/02/15 08:17:37;;;;;;;49.90;24.67;;;;;;;;;;143726;581;46021;-70
2022/02/15 08:20:04;;;;;;;50.63;26.52;;;;;;;;;;143728;574;46010;-69
2022/02/15 08:22:31;;;;;;;45.80;25.42;;;;;;;;;;143727;593;46020;-68
2022/02/15 08:24:58;;;;;;;45.40;23.83;;;;;;;;;;143729;697;46020;-68
2022/02/15 08:27:25;;;;;;;37.55;22.25;;;;;;;;;;143726;594;46020;-66
2022/02/15 08:29:52;;;;;;;44.30;23.90;;;;;;;;;;143727;579;46020;-66
2022/02/15 08:32:20;;;;;;;40.60;23.58;;;;;;;;;;143727;585;46020;-66
2022/02/15 08:34:47;;;;;;;44.20;23.95;;;;;;;;;;143733;646;45021;-68
2022/02/15 08:37:14;;;;;;;46.53;24.42;;;;;;;;;;143728;566;46020;-67
2022/02/15 08:39:41;;;;;;;47.60;25.33;;;;;;;;;;143729;609;46011;-68
2022/02/15 08:42:08;;;;;;;41.08;22.83;;;;;;;;;;143728;607;46021;-68
2022/02/15 08:44:36;;;;;;;45.08;24.52;;;;;;;;;;143731;570;46010;-67
2022/02/15 08:47:08;;;;;;;45.53;26.52;;;;;;;;;;143727;586;46020;-69
2022/02/15 08:49:36;;;;;;;60.85;30.58;;;;;;;;;;143729;595;46001;-69
2022/02/15 08:52:04;;;;;;;48.00;27.52;;;;;;;;;;143728;586;46020;-68
2022/02/15 08:54:32;;;;;;;50.42;26.67;;;;;;;;;;143732;569;46010;-68
2022/02/15 08:56:59;;;;;;;56.60;30.65;;;;;;;;;;143728;572;46020;-70
2022/02/15 08:59:26;;;;;;;58.20;32.33;;;;;;;;;;143729;575;46010;-68
2022/02/15 09:01:53;;;;;;;48.78;28.73;;;;;;;;;;143728;618;46020;-70
2022/02/15 09:04:19;;;;;;;47.65;28.48;;;;;;;;;;143732;579;46010;-68
2022/02/15 09:06:46;;;;;;;52.65;30.98;;;;;;;;;;143730;605;45022;-69
2022/02/15 09:09:14;;;;;;;48.13;26.83;;;;;;;;;;143729;641;46011;-70
2022/02/15 09:11:44;;;;;;;53.85;28.33;;;;;;;;;;143731;637;46021;-67
2022/02/15 09:14:12;;;;;;;42.80;25.50;;;;;;;;;;143733;633;45020;-67
2022/02/15 09:16:42;;;;;;;45.58;26.35;;;;;;;;;;143729;570;45022;-67
2022/02/15 09:19:10;;;;;;;39.45;23.20;;;;;;;;;;143731;616;45916;-68
2022/02/15 09:21:38;;;;;;;46.78;26.10;;;;;;;;;;143727;806;46020;-67
2022/02/15 09:24:05;;;;;;;44.13;26.02;;;;;;;;;;143733;895;45021;-67
2022/02/15 09:26:33;;;;;;;41.13;22.75;;;;;;;;;;143727;643;46020;-68
2022/02/15 09:29:00;;;;;;;51.00;27.00;;;;;;;;;;143728;736;46020;-68
2022/02/15 09:31:28;;;;;;;52.62;31.45;;;;;;;;;;143730;815;46020;-68
2022/02/15 09:33:55;;;;;;;48.80;27.85;;;;;;;;;;143731;564;46010;-69
2022/02/15 09:36:23;;;;;;;41.88;24.42;;;;;;;;;;143727;625;46022;-67
2022/02/15 09:38:51;;;;;;;42.20;24.85;;;;;;;;;;143729;625;46010;-68
2022/02/15 09:41:18;;;;;;;33.95;20.67;;;;;;;;;;143728;621;46021;-69
2022/02/15 09:43:45;;;;;;;43.15;23.98;;;;;;;;;;143733;573;45032;-69
2022/02/15 09:46:13;;;;;;;38.13;23.30;;;;;;;;;;143728;573;45022;-69
2022/02/15 09:48:43;;;;;;;32.50;21.05;;;;;;;;;;143728;624;46024;-68
2022/02/15 09:51:11;;;;;;;38.35;19.73;;;;;;;;;;143726;582;46020;-69
2022/02/15 09:53:39;;;;;;;25.48;16.10;;;;;;;;;;143732;569;46020;-69
2022/02/15 09:56:06;;;;;;;28.70;19.12;;;;;;;;;;143729;615;46021;-68
2022/02/15 09:58:34;;;;;;;27.70;18.67;;;;;;;;;;143729;591;46010;-68
2022/02/15 10:01:02;;;;;;;24.12;17.92;;;;;;;;;;143727;575;46020;-67
2022/02/15 10:03:29;;;;;;;30.10;18.73;;;;;;;;;;143732;572;46010;-66
2022/02/15 10:05:57;;;;;;;28.12;18.37;;;;;;;;;;143728;616;46020;-67
2022/02/15 10:08:35;;;;;;;28.83;16.67;;;;;;;;;;143729;604;46011;-67
2022/02/15 10:11:13;;;;;;;29.17;17.02;;;;;;;;;;143728;589;46021;-67
2022/02/15 10:13:44;;;;;;;27.20;16.77;;;;;;;;;;143730;733;46012;-67
2022/02/15 10:16:11;;;;;;;30.85;19.45;;;;;;;;;;143727;588;46021;-66
2022/02/15 10:18:38;;;;;;;27.67;17.98;;;;;;;;;;143729;586;46010;-66
2022/02/15 10:21:06;;;;;;;22.52;15.43;;;;;;;;;;143728;597;46020;-65
2022/02/15 10:23:37;;;;;;;27.70;18.10;;;;;;;;;;143731;694;45028;-66
2022/02/15 10:26:08;;;;;;;22.25;15.20;;;;;;;;;;143728;569;46020;-65
2022/02/15 10:28:35;;;;;;;26.10;17.02;;;;;;;;;;143728;598;46010;-65
2022/02/15 10:31:04;;;;;;;26.20;17.50;;;;;;;;;;143728;599;46020;-65
2022/02/15 10:33:42;;;;;;;27.10;16.62;;;;;;;;;;143732;647;46020;-65
2022/02/15 10:36:11;;;;;;;26.75;17.37;;;;;;;;;;143726;628;47010;-64
2022/02/15 10:38:52;;;;;;;29.83;18.75;;;;;;;;;;143729;576;46011;-64
2022/02/15 10:41:25;;;;;;;29.52;18.35;;;;;;;;;;143728;572;46021;-64
2022/02/15 10:43:54;;;;;;;28.77;19.55;;;;;;;;;;143729;609;46020;-65
2022/02/15 10:46:28;;;;;;;28.52;18.87;;;;;;;;;;143727;579;46043;-65
2022/02/15 10:48:55;;;;;;;28.42;20.02;;;;;;;;;;143729;591;46010;-65
2022/02/15 10:51:24;;;;;;;28.87;21.75;;;;;;;;;;143728;628;46020;-66
2022/02/15 10:53:51;;;;;;;29.12;21.50;;;;;;;;;;143730;656;46020;-65
2022/02/15 10:56:19;;;;;;;27.80;20.52;;;;;;;;;;143728;569;46020;-66
2022/02/15 10:58:51;;;;;;;29.85;20.80;;;;;;;;;;143728;582;46010;-66
2022/02/15 11:01:19;;;;;;;28.77;20.48;;;;;;;;;;143725;604;46020;-66
2022/02/15 11:03:47;;;;;;;25.42;18.40;;;;;;;;;;143732;611;46010;-65
2022/02/15 11:06:14;;;;;;;26.87;19.00;;;;;;;;;;143730;590;46020;-65
2022/02/15 11:08:43;;;;;;;25.20;19.05;;;;;;;;;;143727;633;46040;-65
2022/02/15 11:11:22;;;;;;;26.75;18.00;;;;;;;;;;143728;595;46019;-65
2022/02/15 11:13:50;;;;;;;29.92;21.40;;;;;;;;;;143730;596;46022;-65
2022/02/15 11:16:18;;;;;;;40.10;24.30;;;;;;;;;;143725;586;47020;-65
2022/02/15 11:18:46;;;;;;;32.85;23.45;;;;;;;;;;143727;585;46010;-66
2022/02/15 11:21:27;;;;;;;26.48;18.73;;;;;;;;;;143727;596;46018;-65
2022/02/15 11:23:59;;;;;;;25.08;16.75;;;;;;;;;;143732;592;46023;-64
2022/02/15 11:26:41;;;;;;;24.73;16.48;;;;;;;;;;143723;564;47018;-65
2022/02/15 11:29:25;;;;;;;23.95;15.45;;;;;;;;;;143728;610;46010;-65
2022/02/15 11:31:55;;;;;;;26.65;18.15;;;;;;;;;;143728;583;46019;-64
2022/02/15 11:34:34;;;;;;;24.55;16.98;;;;;;;;;;143730;585;46023;-64
2022/02/15 11:37:01;;;;;;;24.98;16.10;;;;;;;;;;143726;608;47018;-64
2022/02/15 11:39:31;;;;;;;22.48;15.63;;;;;;;;;;143728;593;46010;-63
2022/02/15 11:42:00;;;;;;;22.33;15.82;;;;;;;;;;143728;566;46018;-63
2022/02/15 11:44:37;;;;;;;23.12;14.50;;;;;;;;;;143732;630;46022;-64
2022/02/15 11:47:17;;;;;;;30.85;16.60;;;;;;;;;;143728;577;46010;-64
2022/02/15 11:50:00;;;;;;;21.42;14.48;;;;;;;;;;143728;579;46010;-63
2022/02/15 11:52:29;;;;;;;25.88;13.82;;;;;;;;;;143728;610;46018;-63
2022/02/15 11:55:05;;;;;;;20.73;14.15;;;;;;;;;;143729;581;46023;-63
2022/02/15 11:57:32;;;;;;;22.08;14.45;;;;;;;;;;143728;580;46013;-63
2022/02/15 12:00:00;;;;;;;18.67;12.73;;;;;;;;;;143728;585;46010;-62
2022/02/15 12:02:27;;;;;;;26.58;14.32;;;;;;;;;;143728;585;46019;-62
2022/02/15 12:05:04;;;;;;;20.88;14.82;;;;;;;;;;143732;582;46022;-62
2022/02/15 12:07:31;;;;;;;25.17;13.62;;;;;;;;;;143728;566;46018;-62
2022/02/15 12:10:07;;;;;;;23.60;15.13;;;;;;;;;;143729;605;46010;-62
2022/02/15 12:12:39;;;;;;;25.00;14.27;;;;;;;;;;143729;598;46018;-61
2022/02/15 12:15:08;;;;;;;24.30;14.85;;;;;;;;;;143730;609;46012;-62
2022/02/15 12:17:42;;;;;;;21.08;14.00;;;;;;;;;;143726;590;46018;-62
2022/02/15 12:20:16;;;;;;;23.35;14.50;;;;;;;;;;143729;707;46010;-62
2022/02/15 12:22:44;;;;;;;20.65;14.25;;;;;;;;;;143728;603;46018;-62
2022/02/15 12:25:13;;;;;;;21.42;13.65;;;;;;;;;;143730;567;46023;-62
2022/02/15 12:27:44;;;;;;;19.15;14.15;;;;;;;;;;143727;566;46018;-62
2022/02/15 12:30:12;;;;;;;23.40;14.80;;;;;;;;;;143729;621;46011;-62
2022/02/15 12:32:43;;;;;;;18.60;13.18;;;;;;;;;;143729;571;46019;-62
2022/02/15 12:35:11;;;;;;;19.35;13.52;;;;;;;;;;143731;688;46012;-62
2022/02/15 12:37:38;;;;;;;20.23;14.15;;;;;;;;;;143730;599;45020;-62
2022/02/15 12:40:07;;;;;;;20.50;13.90;;;;;;;;;;143729;587;46010;-62
2022/02/15 12:42:35;;;;;;;22.80;13.80;;;;;;;;;;143726;618;46018;-62
2022/02/15 12:45:07;;;;;;;25.27;15.27;;;;;;;;;;143730;627;46022;-62
2022/02/15 12:47:37;;;;;;;22.80;14.57;;;;;;;;;;143727;611;47019;-62
2022/02/15 12:50:05;;;;;;;22.95;14.65;;;;;;;;;;143728;585;46010;-62
2022/02/15 12:52:34;;;;;;;24.48;15.55;;;;;;;;;;143726;816;47014;-61
2022/02/15 12:55:15;;;;;;;21.83;14.60;;;;;;;;;;143730;587;46012;-61
2022/02/15 12:57:51;;;;;;;28.10;18.33;;;;;;;;;;143726;575;46018;-61
2022/02/15 13:00:20;;;;;;;24.77;16.17;;;;;;;;;;143728;586;46010;-61
2022/02/15 13:02:49;;;;;;;24.05;16.23;;;;;;;;;;143727;565;46019;-61
2022/02/15 13:05:29;;;;;;;54.72;35.15;;;;;;;;;;143731;569;45033;-61
2022/02/15 13:07:56;;;;;;;32.97;21.37;;;;;;;;;;143719;766;48018;-61
2022/02/15 13:10:24;;;;;;;39.28;25.35;;;;;;;;;;143726;608;46010;-61
2022/02/15 13:12:51;;;;;;;31.83;20.90;;;;;;;;;;143726;571;46018;-61
2022/02/15 13:15:20;;;;;;;26.65;17.15;;;;;;;;;;143728;744;46022;-61
2022/02/15 13:17:51;;;;;;;24.75;17.20;;;;;;;;;;143725;813;47018;-60
2022/02/15 13:20:27;;;;;;;19.60;14.43;;;;;;;;;;143724;866;46022;-61
2022/02/15 13:23:07;;;;;;;23.77;15.55;;;;;;;;;;143726;574;46020;-61
2022/02/15 13:25:52;;;;;;;25.80;16.55;;;;;;;;;;143728;729;46039;-60
2022/02/15 13:28:21;;;;;;;21.87;13.80;;;;;;;;;;143726;603;47018;-60
2022/02/15 13:30:49;;;;;;;28.00;16.00;;;;;;;;;;143727;576;46013;-61
2022/02/15 13:33:17;;;;;;;20.83;12.82;;;;;;;;;;143727;566;46018;-60
2022/02/15 13:36:05;;;;;;;26.02;14.45;;;;;;;;;;143730;623;46012;-61
2022/02/15 13:38:32;;;;;;;19.62;12.90;;;;;;;;;;143724;605;47019;-61
2022/02/15 13:40:59;;;;;;;20.98;13.60;;;;;;;;;;143726;590;46012;-61
2022/02/15 13:43:28;;;;;;;20.90;13.02;;;;;;;;;;143727;634;46018;-61
2022/02/15 13:45:56;;;;;;;19.92;12.95;;;;;;;;;;143730;638;46023;-60
2022/02/15 13:48:24;;;;;;;21.02;12.88;;;;;;;;;;143724;565;47018;-60
2022/02/15 13:50:58;;;;;;;21.40;13.73;;;;;;;;;;143727;587;46012;-61
2022/02/15 13:53:25;;;;;;;16.60;11.98;;;;;;;;;;143725;592;46019;-61
2022/02/15 13:55:52;;;;;;;18.98;10.35;;;;;;;;;;143728;596;46012;-60
2022/02/15 13:58:19;;;;;;;18.60;12.32;;;;;;;;;;143723;575;47020;-60
2022/02/15 14:00:46;;;;;;;18.12;12.77;;;;;;;;;;143726;594;46013;-61
2022/02/15 14:03:13;;;;;;;19.98;12.00;;;;;;;;;;143726;579;46019;-60
2022/02/15 14:05:40;;;;;;;18.15;11.60;;;;;;;;;;143730;622;46012;-61
2022/02/15 14:08:07;;;;;;;18.58;12.02;;;;;;;;;;143726;570;46019;-61
2022/02/15 14:10:34;;;;;;;18.87;11.75;;;;;;;;;;143726;575;46012;-61
2022/02/15 14:13:02;;;;;;;18.17;11.73;;;;;;;;;;143727;622;46018;-61
2022/02/15 14:15:29;;;;;;;21.52;11.30;;;;;;;;;;143729;583;46013;-60
2022/02/15 14:17:57;;;;;;;21.48;11.75;;;;;;;;;;143725;633;46018;-61
2022/02/15 14:20:24;;;;;;;16.70;11.70;;;;;;;;;;143726;584;46012;-61
2022/02/15 14:22:51;;;;;;;18.62;11.77;;;;;;;;;;143723;639;47014;-60
2022/02/15 14:25:19;;;;;;;17.42;11.95;;;;;;;;;;143730;595;46012;-60
2022/02/15 14:27:47;;;;;;;18.73;11.93;;;;;;;;;;143727;615;46018;-60
2022/02/15 14:30:16;;;;;;;19.02;11.27;;;;;;;;;;143726;591;46023;-60
2022/02/15 14:32:45;;;;;;;19.52;12.32;;;;;;;;;;143726;625;46018;-60